This is the latest recevied weather packets stored in our database for station/object WB4ROX. If no packets are shown the sender has not sent any weather packets the latest 10 day(s).
| Time | Temp. | Humidity | Pressure | Rain* | Wind** | Luminosity | Snow |
|---|---|---|---|---|---|---|---|
| 1777755024 | 5.56° C | 52% | 1013.7 hPa | 0 mm | - | 161 W/m² | - |
| 1777754721 | 6.67° C | 50% | 1013.5 hPa | 0 mm | - | 160 W/m² | - |
| 1777754418 | 7.78° C | 46% | 1013.6 hPa | 0 mm | - | 210 W/m² | - |
| 1777754115 | 7.22° C | 45% | 1013.3 hPa | 0 mm | - | 260 W/m² | - |
| 1777753812 | 7.78° C | 45% | 1013.5 hPa | 0 mm | - | 723 W/m² | - |
| 1777753508 | 6.67° C | 47% | 1013.5 hPa | 0 mm | - | 777 W/m² | - |
| 1777753207 | 7.22° C | 47% | 1013.3 hPa | 0 mm | - | 525 W/m² | - |
| 1777752902 | 6.11° C | 49% | 1013.2 hPa | 0 mm | - | 282 W/m² | - |
| 1777752599 | 6.67° C | 48% | 1013.7 hPa | 0 mm | - | 193 W/m² | - |
| 1777752295 | 7.78° C | 44% | 1013.6 hPa | 0 mm | - | 197 W/m² | - |
| 1777751993 | 7.22° C | 45% | 1013.3 hPa | 0 mm | - | 727 W/m² | - |
| 1777751690 | 6.67° C | 45% | 1013.7 hPa | 0 mm | - | 730 W/m² | - |
| 1777751386 | 6.67° C | 47% | 1013.6 hPa | 0 mm | - | 178 W/m² | - |
| 1777751083 | 6.67° C | 46% | 1013.6 hPa | 0 mm | - | 149 W/m² | - |
| 1777750778 | 7.78° C | 44% | 1014 hPa | 0 mm | - | 505 W/m² | - |
| 1777750476 | 8.33° C | 42% | 1013.8 hPa | 0 mm | - | 875 W/m² | - |
| 1777750171 | 8.33° C | 42% | 1013.7 hPa | 0 mm | - | 445 W/m² | - |
| 1777749869 | 7.78° C | 43% | 1013.8 hPa | 0 mm | - | 797 W/m² | - |
| 1777749565 | 7.78° C | 42% | 1013.9 hPa | 0 mm | - | 887 W/m² | - |
| 1777749264 | 8.33° C | 41% | 1013.7 hPa | 0 mm | - | 491 W/m² | - |
| 1777748961 | 8.89° C | 40% | 1013.6 hPa | 0 mm | - | 658 W/m² | - |
| 1777748658 | 8.33° C | 41% | 1013.7 hPa | 0 mm | - | 856 W/m² | - |
| 1777748354 | 8.33° C | 43% | 1013.9 hPa | 0 mm | - | 829 W/m² | - |
| 1777748049 | 8.33° C | 40% | 1013.8 hPa | 0 mm | - | 824 W/m² | - |
| 1777747747 | 8.33° C | 43% | 1013.8 hPa | 0 mm | - | 942 W/m² | - |
* Rain latest hour (hover to see other rain measurements)
** Current wind speed in m/s (hover to see current wind gust speed)